createdAt,value
2022-12-04T00:01:29.917Z,50.40
2022-12-04T00:04:00.503Z,47.90
2022-12-04T00:06:29.982Z,56.60
2022-12-04T00:08:57.900Z,49.30
2022-12-04T00:11:30.957Z,52.80
2022-12-04T00:14:06.162Z,59.80
2022-12-04T00:16:35.635Z,57.60
2022-12-04T00:19:03.869Z,70.40
2022-12-04T00:21:32.052Z,95.20
2022-12-04T00:23:59.876Z,77.90
2022-12-04T00:26:29.291Z,84.70
2022-12-04T00:28:57.269Z,82.50
2022-12-04T00:31:27.514Z,59.90
2022-12-04T00:33:55.440Z,56.00
2022-12-04T00:36:26.571Z,43.40
2022-12-04T00:38:55.232Z,49.70
2022-12-04T00:41:26.321Z,46.50
2022-12-04T00:43:54.133Z,50.60
2022-12-04T00:46:22.902Z,47.60
2022-12-04T00:48:52.063Z,49.40
2022-12-04T00:51:25.063Z,42.40
2022-12-04T00:53:53.568Z,42.20
2022-12-04T00:56:26.108Z,46.70
2022-12-04T00:58:57.459Z,46.60
2022-12-04T01:01:30.204Z,34.70
2022-12-04T01:03:57.974Z,23.60
2022-12-04T01:06:33.713Z,42.90
2022-12-04T01:09:05.240Z,41.40
2022-12-04T01:11:33.983Z,38.40
2022-12-04T01:14:02.202Z,42.60
2022-12-04T01:16:39.509Z,42.20
2022-12-04T01:19:11.518Z,44.50
2022-12-04T01:21:40.701Z,40.60
2022-12-04T01:24:08.853Z,37.90
2022-12-04T01:26:36.710Z,48.20
2022-12-04T01:29:04.852Z,38.80
2022-12-04T01:31:32.612Z,49.30
2022-12-04T01:34:00.487Z,48.00
2022-12-04T01:36:28.914Z,50.00
2022-12-04T01:38:57.044Z,49.40
2022-12-04T01:41:29.194Z,53.40
2022-12-04T01:44:22.672Z,51.40
2022-12-04T01:46:53.601Z,45.90
2022-12-04T01:49:29.736Z,47.30
2022-12-04T01:52:16.050Z,50.30
2022-12-04T01:54:49.331Z,47.00
2022-12-04T01:57:24.910Z,56.60
2022-12-04T01:59:59.542Z,54.60
2022-12-04T02:02:37.840Z,49.30
2022-12-04T02:05:10.950Z,39.30
2022-12-04T02:07:41.332Z,46.90
2022-12-04T02:10:11.569Z,42.20
2022-12-04T02:13:02.854Z,53.90
2022-12-04T02:15:57.492Z,49.60
2022-12-04T02:18:52.371Z,48.70
2022-12-04T02:21:28.648Z,50.80
2022-12-04T02:24:52.662Z,49.20
2022-12-04T02:27:41.723Z,44.00
2022-12-04T02:30:14.077Z,51.90
2022-12-04T02:33:17.159Z,47.00
2022-12-04T02:36:02.509Z,47.50
2022-12-04T02:38:40.685Z,43.80
2022-12-04T02:41:27.831Z,42.00
2022-12-04T02:44:07.868Z,51.60
2022-12-04T02:46:47.491Z,39.90
2022-12-04T02:49:23.703Z,38.40
2022-12-04T02:51:55.713Z,39.60
2022-12-04T02:54:34.507Z,42.20
2022-12-04T02:57:06.787Z,44.60
2022-12-04T02:59:42.840Z,48.30
2022-12-04T03:02:21.951Z,47.40
2022-12-04T03:04:54.393Z,40.50
2022-12-04T03:07:40.020Z,34.50
2022-12-04T03:10:15.895Z,33.40
2022-12-04T03:12:56.526Z,37.40
2022-12-04T03:15:31.527Z,38.10
2022-12-04T03:18:16.617Z,37.90
2022-12-04T03:20:50.600Z,40.80
2022-12-04T03:23:30.512Z,43.50
2022-12-04T03:26:31.420Z,32.30
2022-12-04T03:29:28.612Z,40.00
2022-12-04T03:32:24.856Z,34.10
2022-12-04T03:35:19.026Z,37.70
2022-12-04T03:38:33.580Z,35.00
2022-12-04T03:41:20.048Z,31.10
2022-12-04T03:44:07.045Z,33.10
2022-12-04T03:46:58.844Z,34.30
2022-12-04T03:50:02.586Z,32.60
2022-12-04T03:52:47.411Z,30.90
2022-12-04T03:55:51.099Z,28.90
2022-12-04T03:58:28.181Z,32.70
2022-12-04T04:00:58.295Z,38.00
2022-12-04T04:03:39.541Z,33.90
2022-12-04T04:06:18.113Z,32.00
2022-12-04T04:08:52.276Z,33.40
2022-12-04T04:11:34.701Z,28.10
2022-12-04T04:14:40.836Z,32.20
2022-12-04T04:17:38.497Z,36.90
2022-12-04T04:20:45.713Z,35.90
2022-12-04T04:23:36.683Z,35.40
2022-12-04T04:26:06.711Z,35.30
2022-12-04T04:28:42.881Z,32.30
2022-12-04T04:31:48.011Z,40.00
2022-12-04T04:34:45.890Z,35.00
2022-12-04T04:37:16.684Z,35.60
2022-12-04T04:40:05.752Z,40.90
2022-12-04T04:43:02.252Z,41.00
2022-12-04T04:45:37.489Z,43.30
2022-12-04T04:48:20.337Z,40.10
2022-12-04T04:50:50.133Z,37.20
2022-12-04T04:53:26.786Z,40.50
2022-12-04T04:55:54.692Z,38.50
2022-12-04T04:58:22.501Z,36.10
2022-12-04T05:01:08.396Z,42.00
2022-12-04T05:03:36.739Z,45.50
2022-12-04T05:06:04.858Z,36.40
2022-12-04T05:08:33.453Z,36.50
2022-12-04T05:11:01.463Z,30.80
2022-12-04T05:13:31.020Z,33.60
2022-12-04T05:16:06.911Z,35.20
2022-12-04T05:18:35.872Z,36.10
2022-12-04T05:21:16.713Z,38.50
2022-12-04T05:23:44.655Z,38.60
2022-12-04T05:26:12.393Z,36.20
2022-12-04T05:28:42.333Z,39.20
2022-12-04T05:31:10.169Z,38.00
2022-12-04T05:33:37.888Z,32.10
2022-12-04T05:36:10.360Z,25.80
2022-12-04T05:38:38.134Z,30.60
2022-12-04T05:41:06.857Z,36.00
2022-12-04T05:43:35.613Z,38.40
2022-12-04T05:46:08.507Z,36.20
2022-12-04T05:48:36.612Z,33.90
2022-12-04T05:51:10.141Z,31.80
2022-12-04T05:53:38.953Z,27.20
2022-12-04T05:56:07.648Z,33.70
2022-12-04T05:58:37.720Z,29.80
2022-12-04T06:01:19.805Z,38.60
2022-12-04T06:03:47.667Z,35.70
2022-12-04T06:06:23.220Z,32.70
2022-12-04T06:08:55.199Z,29.00
2022-12-04T06:11:33.862Z,28.10
2022-12-04T06:14:05.713Z,28.70
2022-12-04T06:16:46.295Z,34.50
2022-12-04T06:19:19.085Z,32.30
2022-12-04T06:21:52.063Z,31.70
2022-12-04T06:24:24.303Z,37.20
2022-12-04T06:27:26.265Z,35.30
2022-12-04T06:29:45.872Z,31.80
2022-12-04T06:32:19.482Z,26.90
2022-12-04T06:34:54.498Z,33.50
2022-12-04T06:37:25.205Z,29.80
2022-12-04T06:39:53.228Z,28.10
2022-12-04T06:42:21.164Z,34.10
2022-12-04T06:44:49.419Z,40.30
2022-12-04T06:47:17.221Z,37.20
2022-12-04T06:49:46.083Z,32.00
2022-12-04T06:52:13.774Z,34.50
2022-12-04T06:54:41.571Z,30.70
2022-12-04T06:57:09.506Z,25.70
2022-12-04T06:59:37.333Z,35.10
2022-12-04T07:02:05.430Z,40.90
2022-12-04T07:04:33.219Z,32.60
2022-12-04T07:07:00.848Z,34.10
2022-12-04T07:09:28.530Z,29.50
2022-12-04T07:11:56.364Z,26.90
2022-12-04T07:14:24.064Z,30.00
2022-12-04T07:16:51.820Z,25.70
2022-12-04T07:19:19.526Z,33.80
2022-12-04T07:21:47.278Z,38.50
2022-12-04T07:24:18.094Z,36.70
2022-12-04T07:26:46.439Z,42.00
2022-12-04T07:29:14.283Z,31.80
2022-12-04T07:31:42.179Z,34.10
2022-12-04T07:34:10.117Z,27.40
2022-12-04T07:36:40.326Z,25.20
2022-12-04T07:39:08.119Z,38.90
2022-12-04T07:41:35.990Z,39.10
2022-12-04T07:44:03.725Z,33.30
2022-12-04T07:46:31.437Z,30.20
2022-12-04T07:48:59.582Z,29.00
2022-12-04T07:51:30.049Z,20.60
2022-12-04T07:54:02.833Z,29.80
2022-12-04T07:56:33.286Z,24.40
2022-12-04T07:59:01.243Z,35.20
2022-12-04T08:01:29.675Z,25.50
2022-12-04T08:04:00.300Z,27.60
2022-12-04T08:06:32.360Z,29.10
2022-12-04T08:09:04.750Z,33.50
2022-12-04T08:11:35.652Z,20.90
2022-12-04T08:14:06.595Z,34.40
2022-12-04T08:16:35.093Z,38.10
2022-12-04T08:19:03.340Z,32.70
2022-12-04T08:21:32.804Z,34.30
2022-12-04T08:24:01.665Z,30.70
2022-12-04T08:26:33.559Z,17.80
2022-12-04T08:29:02.376Z,30.80
2022-12-04T08:31:34.079Z,42.50
2022-12-04T08:34:06.002Z,51.20
2022-12-04T08:36:35.453Z,36.90
2022-12-04T08:39:04.670Z,49.90
2022-12-04T08:41:32.856Z,37.20
2022-12-04T08:44:01.098Z,40.30
2022-12-04T08:46:29.404Z,42.80
2022-12-04T08:48:57.808Z,31.90
2022-12-04T08:51:30.032Z,37.70
2022-12-04T08:54:01.350Z,36.70
2022-12-04T08:56:31.410Z,31.90
2022-12-04T08:59:00.775Z,31.60
2022-12-04T09:01:29.539Z,30.50
2022-12-04T09:03:57.618Z,31.90
2022-12-04T09:06:25.892Z,27.40
2022-12-04T09:08:57.586Z,36.30
2022-12-04T09:11:28.218Z,33.50
2022-12-04T09:13:56.249Z,37.40
2022-12-04T09:16:25.870Z,29.20
2022-12-04T09:18:54.709Z,33.90
2022-12-04T09:21:25.377Z,27.40
2022-12-04T09:23:53.314Z,30.10
2022-12-04T09:26:30.154Z,35.20
2022-12-04T09:29:02.057Z,29.20
2022-12-04T09:31:31.006Z,30.80
2022-12-04T09:33:59.708Z,29.30
2022-12-04T09:36:27.969Z,31.40
2022-12-04T09:38:55.777Z,27.10
2022-12-04T09:41:51.047Z,30.30
2022-12-04T09:44:28.045Z,31.70
2022-12-04T09:47:03.443Z,32.10
2022-12-04T09:49:45.673Z,30.00
2022-12-04T09:52:47.707Z,34.40
2022-12-04T09:55:44.444Z,29.90
2022-12-04T09:58:20.987Z,34.30
2022-12-04T10:00:52.779Z,29.90
2022-12-04T10:03:27.123Z,42.00
2022-12-04T10:06:11.768Z,36.10
2022-12-04T10:08:44.373Z,28.70
2022-12-04T10:11:32.204Z,29.80
2022-12-04T10:14:44.616Z,27.80
2022-12-04T10:17:33.060Z,35.00
2022-12-04T10:20:38.425Z,36.70
2022-12-04T10:23:34.100Z,32.50
2022-12-04T10:26:05.515Z,29.60
2022-12-04T10:28:43.552Z,26.20
2022-12-04T10:31:15.384Z,32.40
2022-12-04T10:33:50.690Z,28.90
2022-12-04T10:36:25.602Z,30.20
2022-12-04T10:39:00.028Z,30.60
2022-12-04T10:42:09.368Z,24.90
2022-12-04T10:44:37.146Z,32.20
2022-12-04T10:47:06.261Z,28.70
2022-12-04T10:49:36.982Z,29.10
2022-12-04T10:52:06.744Z,34.10
2022-12-04T10:54:54.966Z,31.30
2022-12-04T10:57:22.619Z,31.80
2022-12-04T10:59:57.057Z,34.30
2022-12-04T11:02:29.894Z,28.30
2022-12-04T11:05:07.294Z,32.60
2022-12-04T11:07:43.214Z,32.10
2022-12-04T11:10:38.468Z,29.90
2022-12-04T11:13:16.568Z,32.80
2022-12-04T11:15:55.083Z,27.90
2022-12-04T11:18:34.616Z,30.30
2022-12-04T11:21:15.553Z,32.80
2022-12-04T11:23:47.665Z,37.20
2022-12-04T11:26:29.032Z,35.10
2022-12-04T11:29:01.506Z,23.80
2022-12-04T11:31:31.403Z,27.80
2022-12-04T11:34:20.043Z,26.20
2022-12-04T11:36:55.876Z,29.50
2022-12-04T11:39:38.164Z,30.50
2022-12-04T11:42:31.478Z,31.40
2022-12-04T11:45:23.466Z,38.50
2022-12-04T11:47:58.264Z,32.90
2022-12-04T11:50:54.406Z,29.50
2022-12-04T11:53:42.122Z,27.60
2022-12-04T11:56:34.363Z,33.10
2022-12-04T11:59:24.361Z,29.60
2022-12-04T12:02:40.491Z,27.20
2022-12-04T12:05:36.203Z,31.50
2022-12-04T12:08:14.018Z,32.80
2022-12-04T12:11:02.691Z,24.90
2022-12-04T12:13:52.881Z,29.60
2022-12-04T12:17:10.036Z,37.30
2022-12-04T12:20:11.055Z,30.90
2022-12-04T12:23:06.815Z,26.10
2022-12-04T12:26:15.119Z,32.50
2022-12-04T12:29:02.287Z,25.80
2022-12-04T12:31:58.419Z,29.00
2022-12-04T12:34:37.507Z,29.00
2022-12-04T12:37:41.451Z,31.10
2022-12-04T12:40:35.513Z,31.50
2022-12-04T12:43:32.153Z,33.30
2022-12-04T12:46:15.353Z,34.10
2022-12-04T12:49:15.025Z,28.40
2022-12-04T12:51:54.842Z,28.60
2022-12-04T12:54:46.082Z,28.80
2022-12-04T12:57:39.322Z,32.70
2022-12-04T13:00:17.309Z,32.30
2022-12-04T13:03:06.456Z,34.50
2022-12-04T13:05:41.166Z,29.40
2022-12-04T13:08:37.874Z,31.40
2022-12-04T13:11:10.785Z,34.70
2022-12-04T13:14:02.424Z,37.00
2022-12-04T13:16:56.098Z,39.20
2022-12-04T13:19:32.799Z,36.50
2022-12-04T13:22:25.225Z,36.00
2022-12-04T13:25:09.591Z,41.50
2022-12-04T13:28:29.572Z,43.70
2022-12-04T13:31:29.712Z,42.50
2022-12-04T13:34:34.404Z,31.20
2022-12-04T13:37:16.541Z,31.00
2022-12-04T13:40:09.206Z,31.40
2022-12-04T13:42:37.457Z,30.30
2022-12-04T13:45:27.059Z,34.10
2022-12-04T13:48:03.835Z,36.80
2022-12-04T13:50:34.886Z,39.70
2022-12-04T13:53:04.244Z,34.90
2022-12-04T13:55:33.480Z,32.90
2022-12-04T13:58:31.543Z,40.10
2022-12-04T14:01:00.885Z,37.40
2022-12-04T14:03:37.028Z,33.90
2022-12-04T14:06:21.861Z,36.80
2022-12-04T14:08:58.324Z,38.50
2022-12-04T14:11:28.804Z,40.10
2022-12-04T14:14:03.486Z,38.00
2022-12-04T14:16:41.301Z,36.10
2022-12-04T14:19:34.659Z,41.80
2022-12-04T14:22:03.702Z,32.20
2022-12-04T14:24:39.922Z,38.80
2022-12-04T14:27:41.984Z,27.90
2022-12-04T14:30:23.446Z,36.00
2022-12-04T14:33:21.520Z,42.20
2022-12-04T14:36:05.227Z,37.80
2022-12-04T14:38:33.580Z,38.40
2022-12-04T14:41:01.944Z,29.10
2022-12-04T14:43:44.462Z,48.70
2022-12-04T14:46:46.754Z,43.10
2022-12-04T14:49:31.930Z,39.60
2022-12-04T14:52:35.384Z,40.00
2022-12-04T14:55:36.958Z,39.50
2022-12-04T14:58:31.395Z,40.30
2022-12-04T15:01:03.813Z,30.40
2022-12-04T15:03:37.204Z,36.80
2022-12-04T15:06:21.259Z,37.80
2022-12-04T15:08:53.168Z,39.10
2022-12-04T15:11:40.069Z,38.40
2022-12-04T15:14:14.220Z,36.60
2022-12-04T15:16:41.985Z,38.90
2022-12-04T15:19:21.370Z,33.50
2022-12-04T15:21:49.177Z,31.40
2022-12-04T15:24:23.293Z,43.00
2022-12-04T15:26:53.659Z,38.60
2022-12-04T15:29:31.728Z,40.50
2022-12-04T15:32:07.641Z,43.00
2022-12-04T15:35:04.530Z,39.30
2022-12-04T15:37:32.932Z,35.80
2022-12-04T15:40:06.033Z,40.20
2022-12-04T15:42:33.904Z,33.90
2022-12-04T15:45:24.109Z,31.40
2022-12-04T15:47:54.229Z,44.20
2022-12-04T15:50:28.923Z,39.00
2022-12-04T15:53:05.591Z,39.00
2022-12-04T15:55:46.221Z,51.10
2022-12-04T15:58:35.924Z,50.40
2022-12-04T16:01:15.561Z,36.40
2022-12-04T16:03:43.325Z,48.60
2022-12-04T16:06:30.511Z,48.00
2022-12-04T16:09:22.837Z,44.30
2022-12-04T16:12:29.115Z,35.20
2022-12-04T16:14:57.839Z,43.20
2022-12-04T16:17:34.195Z,36.90
2022-12-04T16:20:05.723Z,44.60
2022-12-04T16:22:33.522Z,51.50
2022-12-04T16:25:01.262Z,60.30
2022-12-04T16:27:28.959Z,54.30
2022-12-04T16:29:56.769Z,54.20
2022-12-04T16:32:34.387Z,48.90
2022-12-04T16:35:02.197Z,51.80
2022-12-04T16:37:31.814Z,38.50
2022-12-04T16:39:59.679Z,55.90
2022-12-04T16:42:30.061Z,44.90
2022-12-04T16:44:58.894Z,38.70
2022-12-04T16:47:26.980Z,45.00
2022-12-04T16:49:54.896Z,45.70
2022-12-04T16:52:23.323Z,56.60
2022-12-04T16:54:51.098Z,43.10
2022-12-04T16:57:18.870Z,46.40
2022-12-04T16:59:46.551Z,40.50
2022-12-04T17:02:25.401Z,35.30
2022-12-04T17:04:57.497Z,46.80
2022-12-04T17:07:25.958Z,51.10
2022-12-04T17:09:53.585Z,45.50
2022-12-04T17:12:21.271Z,51.70
2022-12-04T17:14:48.904Z,45.50
2022-12-04T17:17:16.519Z,56.90
2022-12-04T17:19:44.313Z,48.60
2022-12-04T17:22:14.248Z,45.00
2022-12-04T17:24:57.163Z,44.10
2022-12-04T17:27:25.892Z,55.70
2022-12-04T17:29:53.626Z,60.70
2022-12-04T17:32:22.433Z,47.90
2022-12-04T17:34:52.983Z,65.00
2022-12-04T17:37:21.559Z,64.90
2022-12-04T17:39:49.527Z,46.80
2022-12-04T17:42:17.895Z,47.60
2022-12-04T17:44:46.409Z,48.90
2022-12-04T17:47:14.306Z,56.40
2022-12-04T17:49:42.160Z,50.30
2022-12-04T17:52:10.232Z,47.40
2022-12-04T17:54:37.900Z,45.60
2022-12-04T17:57:05.613Z,49.50
2022-12-04T17:59:33.487Z,45.40
2022-12-04T18:02:01.131Z,28.70
2022-12-04T18:04:28.791Z,52.00
2022-12-04T18:06:56.647Z,57.40
2022-12-04T18:09:24.332Z,61.00
2022-12-04T18:11:52.090Z,62.70
2022-12-04T18:14:22.453Z,63.00
2022-12-04T18:16:54.556Z,61.30
2022-12-04T18:19:26.532Z,64.70
2022-12-04T18:21:55.394Z,31.90
2022-12-04T18:24:25.144Z,58.00
2022-12-04T18:26:53.830Z,54.60
2022-12-04T18:29:25.460Z,56.40
2022-12-04T18:31:53.898Z,49.80
2022-12-04T18:34:22.413Z,52.30
2022-12-04T18:36:50.557Z,47.10
2022-12-04T18:39:21.947Z,57.60
2022-12-04T18:41:50.395Z,51.80
2022-12-04T18:44:18.148Z,38.60
2022-12-04T18:46:45.865Z,53.80
2022-12-04T18:49:13.840Z,59.70
2022-12-04T18:51:49.351Z,45.40
2022-12-04T18:54:22.421Z,51.50
2022-12-04T18:56:51.389Z,46.10
2022-12-04T18:59:26.730Z,43.00
2022-12-04T19:01:55.686Z,46.00
2022-12-04T19:04:25.916Z,61.60
2022-12-04T19:06:56.073Z,68.20
2022-12-04T19:09:54.294Z,65.40
2022-12-04T19:12:16.283Z,59.20
2022-12-04T19:14:43.976Z,63.70
2022-12-04T19:17:11.872Z,57.40
2022-12-04T19:19:39.535Z,50.30
2022-12-04T19:22:07.272Z,50.70
2022-12-04T19:24:34.936Z,52.80
2022-12-04T19:27:10.092Z,42.80
2022-12-04T19:29:40.550Z,58.80
2022-12-04T19:32:11.859Z,45.50
2022-12-04T19:34:39.623Z,40.80
2022-12-04T19:37:07.606Z,59.30
2022-12-04T19:39:35.470Z,53.20
2022-12-04T19:42:03.293Z,55.00
2022-12-04T19:47:19.525Z,50.90
2022-12-04T19:49:48.053Z,42.80
2022-12-04T19:52:17.030Z,40.90
2022-12-04T19:54:44.848Z,46.60
2022-12-04T19:57:14.773Z,32.30
2022-12-04T19:59:57.503Z,46.50
2022-12-04T20:02:25.470Z,53.20
2022-12-04T20:04:53.394Z,59.10
2022-12-04T20:07:21.268Z,41.30
2022-12-04T20:09:52.364Z,46.20
2022-12-04T20:12:20.842Z,47.30
2022-12-04T20:14:48.593Z,26.80
2022-12-04T20:17:16.360Z,39.50
2022-12-04T20:19:44.109Z,53.40
2022-12-04T20:22:11.685Z,56.90
2022-12-04T20:24:39.444Z,45.10
2022-12-04T20:27:07.286Z,44.80
2022-12-04T20:29:36.574Z,40.80
2022-12-04T20:32:04.409Z,50.50
2022-12-04T20:34:32.170Z,39.00
2022-12-04T20:37:00.101Z,40.60
2022-12-04T20:39:28.206Z,40.30
2022-12-04T20:41:55.918Z,41.70
2022-12-04T20:44:23.619Z,55.10
2022-12-04T20:46:51.538Z,37.90
2022-12-04T20:49:22.022Z,44.00
2022-12-04T20:51:52.153Z,45.30
2022-12-04T20:54:23.440Z,44.70
2022-12-04T20:56:53.412Z,48.80
2022-12-04T20:59:23.847Z,45.20
2022-12-04T21:01:52.288Z,48.50
2022-12-04T21:04:21.125Z,43.80
2022-12-04T21:06:49.640Z,46.30
2022-12-04T21:09:22.725Z,42.40
2022-12-04T21:11:54.710Z,48.40
2022-12-04T21:14:47.749Z,26.40
2022-12-04T21:17:19.237Z,48.10
2022-12-04T21:19:50.602Z,45.00
2022-12-04T21:22:19.832Z,48.90
2022-12-04T21:24:47.740Z,44.10
2022-12-04T21:27:20.733Z,38.90
2022-12-04T21:29:50.242Z,49.70
2022-12-04T21:32:19.475Z,33.10
2022-12-04T21:34:48.646Z,38.30
2022-12-04T21:37:16.357Z,37.80
2022-12-04T21:39:44.626Z,47.90
2022-12-04T21:42:30.730Z,53.60
2022-12-04T21:45:01.115Z,40.00
2022-12-04T21:47:30.429Z,39.20
2022-12-04T21:49:59.520Z,39.00
2022-12-04T21:52:27.484Z,41.00
2022-12-04T21:54:55.588Z,32.20
2022-12-04T21:57:24.183Z,35.70
2022-12-04T21:59:52.508Z,41.50
2022-12-04T22:02:20.896Z,35.60
2022-12-04T22:04:48.976Z,33.10
2022-12-04T22:07:16.998Z,32.30
2022-12-04T22:09:46.256Z,27.10
2022-12-04T22:12:41.054Z,29.60
2022-12-04T22:15:01.589Z,32.70
2022-12-04T22:17:29.976Z,28.30
2022-12-04T22:19:57.908Z,19.40
2022-12-04T22:22:25.735Z,26.90
2022-12-04T22:24:53.364Z,37.20
2022-12-04T22:27:21.032Z,35.20
2022-12-04T22:29:50.947Z,32.80
2022-12-04T22:32:20.270Z,27.70
2022-12-04T22:34:49.379Z,20.70
2022-12-04T22:37:17.577Z,36.80
2022-12-04T22:39:45.354Z,39.90
2022-12-04T22:42:13.129Z,44.80
2022-12-04T22:44:40.831Z,41.60
2022-12-04T22:47:08.653Z,37.90
2022-12-04T22:49:36.460Z,25.70
2022-12-04T22:52:05.023Z,33.50
2022-12-04T22:54:32.752Z,34.30
2022-12-04T22:57:00.431Z,37.70
2022-12-04T22:59:28.266Z,37.10
2022-12-04T23:01:56.303Z,33.80
2022-12-04T23:04:24.036Z,34.70
2022-12-04T23:06:51.890Z,28.90
2022-12-04T23:09:19.782Z,22.90
2022-12-04T23:11:52.823Z,35.60
2022-12-04T23:14:22.249Z,36.00
2022-12-04T23:16:50.017Z,39.90
2022-12-04T23:19:19.482Z,34.60
2022-12-04T23:21:53.429Z,39.80
2022-12-04T23:24:25.871Z,35.30
2022-12-04T23:26:53.563Z,40.10
2022-12-04T23:32:09.001Z,34.60
2022-12-04T23:34:36.800Z,33.20
2022-12-04T23:37:04.455Z,24.20
2022-12-04T23:39:32.123Z,29.30
2022-12-04T23:41:59.814Z,36.90
2022-12-04T23:44:27.642Z,38.30
2022-12-04T23:46:55.367Z,29.00
2022-12-04T23:49:23.112Z,34.10
2022-12-04T23:51:50.763Z,32.40
2022-12-04T23:54:18.490Z,37.70
2022-12-04T23:56:46.166Z,35.70
2022-12-04T23:59:13.782Z,33.20
